createdAt,value
2017-11-18T00:02:27.470Z,85.30
2017-11-18T00:04:54.926Z,85.20
2017-11-18T00:07:22.399Z,85.00
2017-11-18T00:09:49.882Z,85.40
2017-11-18T00:12:18.139Z,85.90
2017-11-18T00:14:45.625Z,86.00
2017-11-18T00:17:14.132Z,86.90
2017-11-18T00:19:41.606Z,86.90
2017-11-18T00:22:09.096Z,87.10
2017-11-18T00:24:36.563Z,87.10
2017-11-18T00:27:04.034Z,87.10
2017-11-18T00:29:32.271Z,86.60
2017-11-18T00:31:59.758Z,86.60
2017-11-18T00:34:27.234Z,86.30
2017-11-18T00:36:54.715Z,87.10
2017-11-18T00:39:22.191Z,87.00
2017-11-18T00:41:50.446Z,86.80
2017-11-18T00:44:18.706Z,87.80
2017-11-18T00:46:46.182Z,86.90
2017-11-18T00:49:13.660Z,87.20
2017-11-18T00:51:41.150Z,87.70
2017-11-18T00:54:08.639Z,87.60
2017-11-18T00:56:36.121Z,87.60
2017-11-18T00:59:03.607Z,87.50
2017-11-18T01:01:31.093Z,87.20
2017-11-18T01:03:59.349Z,87.50
2017-11-18T01:06:26.841Z,87.40
2017-11-18T01:08:54.346Z,87.30
2017-11-18T01:11:21.824Z,87.40
2017-11-18T01:13:49.307Z,87.60
2017-11-18T01:16:17.558Z,87.40
2017-11-18T01:18:45.042Z,88.00
2017-11-18T01:21:12.519Z,88.00
2017-11-18T01:23:40.760Z,87.80
2017-11-18T01:26:08.232Z,87.80
2017-11-18T01:28:35.711Z,87.80
2017-11-18T01:31:03.197Z,88.00
2017-11-18T01:33:31.461Z,88.00
2017-11-18T01:35:58.954Z,88.00
2017-11-18T01:38:26.421Z,87.80
2017-11-18T01:40:53.891Z,87.80
2017-11-18T01:43:21.375Z,87.80
2017-11-18T01:45:48.840Z,87.80
2017-11-18T01:48:16.341Z,87.80
2017-11-18T01:50:43.815Z,87.30
2017-11-18T01:53:12.058Z,87.90
2017-11-18T01:55:39.535Z,87.80
2017-11-18T01:58:06.992Z,87.70
2017-11-18T02:00:34.461Z,87.00
2017-11-18T02:03:01.919Z,86.50
2017-11-18T02:05:29.406Z,86.90
2017-11-18T02:07:57.626Z,87.10
2017-11-18T02:10:25.097Z,87.10
2017-11-18T02:12:52.559Z,87.50
2017-11-18T02:15:20.038Z,87.30
2017-11-18T02:17:47.508Z,86.50
2017-11-18T02:20:14.996Z,86.80
2017-11-18T02:22:43.230Z,86.70
2017-11-18T02:25:10.693Z,86.70
2017-11-18T02:27:38.157Z,86.50
2017-11-18T02:30:05.627Z,86.60
2017-11-18T02:32:33.108Z,86.20
2017-11-18T02:35:00.594Z,87.00
2017-11-18T02:37:28.049Z,87.40
2017-11-18T02:39:55.528Z,87.50
2017-11-18T02:42:23.756Z,87.80
2017-11-18T02:44:51.242Z,87.80
2017-11-18T02:47:19.480Z,88.10
2017-11-18T02:49:46.954Z,88.10
2017-11-18T02:52:14.429Z,87.80
2017-11-18T02:54:41.887Z,87.60
2017-11-18T02:57:09.383Z,87.90
2017-11-18T02:59:37.622Z,87.40
2017-11-18T03:02:05.119Z,86.90
2017-11-18T03:04:32.580Z,86.50
2017-11-18T03:07:00.065Z,86.00
2017-11-18T03:09:27.546Z,85.60
2017-11-18T03:11:55.038Z,85.80
2017-11-18T03:14:22.513Z,85.40
2017-11-18T03:16:50.762Z,85.50
2017-11-18T03:19:18.245Z,84.80
2017-11-18T03:21:45.731Z,84.70
2017-11-18T03:24:13.219Z,84.60
2017-11-18T03:26:40.702Z,84.50
2017-11-18T03:29:08.246Z,84.50
2017-11-18T03:31:35.733Z,84.50
2017-11-18T03:34:03.213Z,84.60
2017-11-18T03:36:30.721Z,84.70
2017-11-18T03:38:58.953Z,84.50
2017-11-18T03:41:26.461Z,84.50
2017-11-18T03:43:53.956Z,84.70
2017-11-18T03:46:21.418Z,84.80
2017-11-18T03:48:48.910Z,85.00
2017-11-18T03:51:16.387Z,84.90
2017-11-18T03:53:43.867Z,85.80
2017-11-18T03:56:12.125Z,84.90
2017-11-18T03:58:39.613Z,84.90
2017-11-18T04:01:07.100Z,84.70
2017-11-18T04:03:34.600Z,84.80
2017-11-18T04:06:02.083Z,85.20
2017-11-18T04:08:29.577Z,85.00
2017-11-18T04:10:57.059Z,84.70
2017-11-18T04:13:24.537Z,84.60
2017-11-18T04:15:52.017Z,84.80
2017-11-18T04:18:19.504Z,85.00
2017-11-18T04:20:46.965Z,84.90
2017-11-18T04:23:14.442Z,85.10
2017-11-18T04:25:42.677Z,85.00
2017-11-18T04:28:10.510Z,85.00
2017-11-18T04:30:37.989Z,85.10
2017-11-18T04:33:05.484Z,85.00
2017-11-18T04:35:32.960Z,84.90
2017-11-18T04:38:00.436Z,84.80
2017-11-18T04:40:28.690Z,84.70
2017-11-18T04:42:56.158Z,84.70
2017-11-18T04:45:23.623Z,84.50
2017-11-18T04:47:51.088Z,85.20
2017-11-18T04:50:18.554Z,85.30
2017-11-18T04:52:46.016Z,85.00
2017-11-18T04:55:14.273Z,85.10
2017-11-18T04:57:41.735Z,85.10
2017-11-18T05:00:09.219Z,85.40
2017-11-18T05:02:36.704Z,85.70
2017-11-18T05:05:04.953Z,86.30
2017-11-18T05:07:32.429Z,86.40
2017-11-18T05:09:59.920Z,85.90
2017-11-18T05:12:27.399Z,85.80
2017-11-18T05:14:54.891Z,85.50
2017-11-18T05:17:22.371Z,85.40
2017-11-18T05:19:49.871Z,85.10
2017-11-18T05:22:17.307Z,85.30
2017-11-18T05:24:45.566Z,86.30
2017-11-18T05:27:13.037Z,85.60
2017-11-18T05:29:40.543Z,85.40
2017-11-18T05:32:08.777Z,85.00
2017-11-18T05:34:36.252Z,85.00
2017-11-18T05:37:03.706Z,85.20
2017-11-18T05:39:31.177Z,85.60
2017-11-18T05:41:58.643Z,85.20
2017-11-18T05:44:26.896Z,85.80
2017-11-18T05:46:54.356Z,85.10
2017-11-18T05:49:21.840Z,85.20
2017-11-18T05:51:49.298Z,85.20
2017-11-18T05:54:16.791Z,85.10
2017-11-18T05:56:45.042Z,85.00
2017-11-18T05:59:12.532Z,84.90
2017-11-18T06:01:40.789Z,85.20
2017-11-18T06:04:08.283Z,85.20
2017-11-18T06:06:35.775Z,85.30
2017-11-18T06:09:03.261Z,85.30
2017-11-18T06:11:30.745Z,85.40
2017-11-18T06:13:59.010Z,85.20
2017-11-18T06:16:26.492Z,85.20
2017-11-18T06:18:53.973Z,85.20
2017-11-18T06:21:22.209Z,85.20
2017-11-18T06:23:49.675Z,85.10
2017-11-18T06:26:17.177Z,85.10
2017-11-18T06:28:45.408Z,85.10
2017-11-18T06:31:12.880Z,85.10
2017-11-18T06:33:40.355Z,85.10
2017-11-18T06:36:07.844Z,85.10
2017-11-18T06:38:36.129Z,85.10
2017-11-18T06:41:03.590Z,85.10
2017-11-18T06:43:31.826Z,85.20
2017-11-18T06:45:59.316Z,85.20
2017-11-18T06:48:27.577Z,85.10
2017-11-18T06:50:55.048Z,85.10
2017-11-18T06:53:22.525Z,85.00
2017-11-18T06:55:50.775Z,85.90
2017-11-18T06:58:18.241Z,85.20
2017-11-18T07:00:45.712Z,85.10
2017-11-18T07:03:13.177Z,85.30
2017-11-18T07:05:40.650Z,85.20
2017-11-18T07:08:08.133Z,85.20
2017-11-18T07:10:36.386Z,85.20
2017-11-18T07:13:03.875Z,85.20
2017-11-18T07:15:32.114Z,85.10
2017-11-18T07:17:59.607Z,85.10
2017-11-18T07:20:27.062Z,85.00
2017-11-18T07:22:54.545Z,85.00
2017-11-18T07:25:22.782Z,84.70
2017-11-18T07:27:50.274Z,84.80
2017-11-18T07:30:18.504Z,84.70
2017-11-18T07:32:46.004Z,84.60
2017-11-18T07:35:13.468Z,84.80
2017-11-18T07:37:40.947Z,84.80
2017-11-18T07:40:09.196Z,84.70
2017-11-18T07:42:36.661Z,84.60
2017-11-18T07:45:04.136Z,84.60
2017-11-18T07:47:31.619Z,84.30
2017-11-18T07:49:59.876Z,84.30
2017-11-18T07:52:27.343Z,84.30
2017-11-18T07:54:54.828Z,84.20
2017-11-18T07:57:23.088Z,84.30
2017-11-18T07:59:50.605Z,84.30
2017-11-18T08:02:18.090Z,84.30
2017-11-18T08:04:45.575Z,84.40
2017-11-18T08:07:13.061Z,84.50
2017-11-18T08:09:41.313Z,84.30
2017-11-18T08:12:08.777Z,84.30
2017-11-18T08:14:36.302Z,84.10
2017-11-18T08:17:03.774Z,83.90
2017-11-18T08:19:31.255Z,83.40
2017-11-18T08:21:58.726Z,83.60
2017-11-18T08:24:26.205Z,83.30
2017-11-18T08:26:54.454Z,83.40
2017-11-18T08:29:21.931Z,83.30
2017-11-18T08:31:49.425Z,83.40
2017-11-18T08:34:17.668Z,83.60
2017-11-18T08:36:45.194Z,83.60
2017-11-18T08:39:12.665Z,83.40
2017-11-18T08:41:40.261Z,83.10
2017-11-18T08:44:07.879Z,82.90
2017-11-18T08:46:35.358Z,83.00
2017-11-18T08:49:02.837Z,83.10
2017-11-18T08:51:30.316Z,83.40
2017-11-18T08:53:57.802Z,83.40
2017-11-18T08:56:25.268Z,83.30
2017-11-18T08:58:53.503Z,83.40
2017-11-18T09:01:20.997Z,83.30
2017-11-18T09:03:48.459Z,83.30
2017-11-18T09:06:15.945Z,84.10
2017-11-18T09:08:44.181Z,83.20
2017-11-18T09:11:11.667Z,83.20
2017-11-18T09:13:39.166Z,83.20
2017-11-18T09:16:06.634Z,83.60
2017-11-18T09:18:34.898Z,83.10
2017-11-18T09:21:02.380Z,83.10
2017-11-18T09:23:29.877Z,83.30
2017-11-18T09:25:57.346Z,83.10
2017-11-18T09:28:24.823Z,83.40
2017-11-18T09:30:52.310Z,82.80
2017-11-18T09:33:19.774Z,82.80
2017-11-18T09:35:47.237Z,82.70
2017-11-18T09:38:14.722Z,82.40
2017-11-18T09:40:42.970Z,81.90
2017-11-18T09:43:11.229Z,81.80
2017-11-18T09:45:38.688Z,81.80
2017-11-18T09:48:06.156Z,81.90
2017-11-18T09:50:33.645Z,82.10
2017-11-18T09:53:01.882Z,81.90
2017-11-18T09:55:29.371Z,81.90
2017-11-18T09:57:57.611Z,81.00
2017-11-18T10:00:25.101Z,80.20
2017-11-18T10:02:52.569Z,80.40
2017-11-18T10:05:20.069Z,80.10
2017-11-18T10:07:47.547Z,80.20
2017-11-18T10:10:15.037Z,80.10
2017-11-18T10:12:42.515Z,79.70
2017-11-18T10:15:09.978Z,78.40
2017-11-18T10:17:37.461Z,77.80
2017-11-18T10:20:05.699Z,78.40
2017-11-18T10:22:33.173Z,78.40
2017-11-18T10:25:00.688Z,78.70
2017-11-18T10:27:28.163Z,78.60
2017-11-18T10:29:56.226Z,78.40
2017-11-18T10:32:23.719Z,78.40
2017-11-18T10:34:51.237Z,78.30
2017-11-18T10:37:18.691Z,78.00
2017-11-18T10:39:46.937Z,77.50
2017-11-18T10:42:14.410Z,77.50
2017-11-18T10:44:41.892Z,77.80
2017-11-18T10:47:10.134Z,77.30
2017-11-18T10:49:37.610Z,76.40
2017-11-18T10:52:05.111Z,75.80
2017-11-18T10:54:34.356Z,76.60
2017-11-18T10:57:01.833Z,76.60
2017-11-18T10:59:29.316Z,75.90
2017-11-18T11:01:56.810Z,75.30
2017-11-18T11:04:24.275Z,74.90
2017-11-18T11:06:52.518Z,73.10
2017-11-18T11:09:20.001Z,73.10
2017-11-18T11:11:48.242Z,72.40
2017-11-18T11:14:15.710Z,72.30
2017-11-18T11:16:43.190Z,73.70
2017-11-18T11:19:10.659Z,73.80
2017-11-18T11:21:38.119Z,73.10
2017-11-18T11:24:05.588Z,73.10
2017-11-18T11:26:33.051Z,72.90
2017-11-18T11:29:01.313Z,72.20
2017-11-18T11:31:28.792Z,72.20
2017-11-18T11:33:56.272Z,71.70
2017-11-18T11:36:24.506Z,70.30
2017-11-18T11:38:51.986Z,70.30
2017-11-18T11:41:19.451Z,70.90
2017-11-18T11:43:46.915Z,69.70
2017-11-18T11:46:14.382Z,70.00
2017-11-18T11:48:41.892Z,70.10
2017-11-18T11:51:09.377Z,69.10
2017-11-18T11:53:36.886Z,69.70
2017-11-18T11:56:05.119Z,70.00
2017-11-18T11:58:32.588Z,69.90
2017-11-18T12:01:00.049Z,69.30
2017-11-18T12:03:27.518Z,70.20
2017-11-18T12:05:54.978Z,69.90
2017-11-18T12:08:22.461Z,67.70
2017-11-18T12:10:49.915Z,67.80
2017-11-18T12:13:17.418Z,68.40
2017-11-18T12:15:44.907Z,67.90
2017-11-18T12:18:12.391Z,69.00
2017-11-18T12:20:39.862Z,68.20
2017-11-18T12:23:07.343Z,68.20
2017-11-18T12:25:34.815Z,67.90
2017-11-18T12:28:03.054Z,67.90
2017-11-18T12:30:30.531Z,67.90
2017-11-18T12:32:57.992Z,67.60
2017-11-18T12:35:25.492Z,65.30
2017-11-18T12:37:53.749Z,63.60
2017-11-18T12:40:21.279Z,63.60
2017-11-18T12:42:48.736Z,63.00
2017-11-18T12:45:16.215Z,62.80
2017-11-18T12:47:43.674Z,63.60
2017-11-18T12:50:11.216Z,62.60
2017-11-18T12:52:38.788Z,62.60
2017-11-18T12:55:06.272Z,61.50
2017-11-18T12:57:33.745Z,61.40
2017-11-18T13:00:01.233Z,61.30
2017-11-18T13:02:29.466Z,61.50
2017-11-18T13:04:56.935Z,61.50
2017-11-18T13:07:24.436Z,61.00
2017-11-18T13:09:52.673Z,60.10
2017-11-18T13:12:20.153Z,60.00
2017-11-18T13:14:47.659Z,60.60
2017-11-18T13:17:15.901Z,61.90
2017-11-18T13:19:43.362Z,61.90
2017-11-18T13:22:10.827Z,60.00
2017-11-18T13:24:38.305Z,58.90
2017-11-18T13:27:05.775Z,61.30
2017-11-18T13:29:34.014Z,60.90
2017-11-18T13:32:01.571Z,61.50
2017-11-18T13:34:29.035Z,60.60
2017-11-18T13:36:56.521Z,61.30
2017-11-18T13:39:23.974Z,62.30
2017-11-18T13:41:51.443Z,61.70
2017-11-18T13:44:18.906Z,61.60
2017-11-18T13:46:46.388Z,60.80
2017-11-18T13:49:13.865Z,60.80
2017-11-18T13:51:41.361Z,60.60
2017-11-18T13:54:08.841Z,60.80
2017-11-18T13:56:36.305Z,59.30
2017-11-18T13:59:03.762Z,60.50
2017-11-18T14:01:31.255Z,59.40
2017-11-18T14:03:58.723Z,60.70
2017-11-18T14:06:26.744Z,60.10
2017-11-18T14:08:54.218Z,59.50
2017-11-18T14:11:21.702Z,60.30
2017-11-18T14:13:49.969Z,60.00
2017-11-18T14:16:17.468Z,60.00
2017-11-18T14:18:44.936Z,60.40
2017-11-18T14:21:13.203Z,61.40
2017-11-18T14:23:40.676Z,61.40
2017-11-18T14:26:08.186Z,61.00
2017-11-18T14:28:35.643Z,61.70
2017-11-18T14:31:03.128Z,61.10
2017-11-18T14:33:30.606Z,60.20
2017-11-18T14:35:58.085Z,60.50
2017-11-18T14:38:26.476Z,62.00
2017-11-18T14:40:54.703Z,60.20
2017-11-18T14:43:22.172Z,60.10
2017-11-18T14:45:49.646Z,61.00
2017-11-18T14:48:17.111Z,60.60
2017-11-18T14:50:44.606Z,60.70
2017-11-18T14:53:12.088Z,59.50
2017-11-18T14:55:40.353Z,59.60
2017-11-18T14:58:08.593Z,60.40
2017-11-18T15:00:36.076Z,60.40
2017-11-18T15:03:03.544Z,60.10
2017-11-18T15:05:31.014Z,61.60
2017-11-18T15:07:59.274Z,61.20
2017-11-18T15:10:26.746Z,61.00
2017-11-18T15:12:54.277Z,61.00
2017-11-18T15:15:24.194Z,60.70
2017-11-18T15:17:52.258Z,61.00
2017-11-18T15:20:25.447Z,61.10
2017-11-18T15:26:05.965Z,59.60
2017-11-18T15:28:39.236Z,59.50
2017-11-18T15:31:13.244Z,60.60
2017-11-18T15:33:56.516Z,61.40
2017-11-18T15:36:30.449Z,61.20
2017-11-18T15:38:57.932Z,61.20
2017-11-18T15:41:25.378Z,61.10
2017-11-18T15:43:56.286Z,62.50
2017-11-18T15:46:42.303Z,61.00
2017-11-18T15:49:28.476Z,60.20
2017-11-18T15:52:12.369Z,60.30
2017-11-18T15:54:43.360Z,60.30
2017-11-18T15:57:13.632Z,60.70
2017-11-18T15:59:41.112Z,60.00
2017-11-18T16:02:14.414Z,60.30
2017-11-18T16:04:41.933Z,58.90
2017-11-18T16:07:12.009Z,60.80
2017-11-18T16:09:40.247Z,59.60
2017-11-18T16:12:07.714Z,59.50
2017-11-18T16:14:35.192Z,59.50
2017-11-18T16:17:02.667Z,60.00
2017-11-18T16:19:30.148Z,60.10
2017-11-18T16:21:58.378Z,60.10
2017-11-18T16:24:25.858Z,60.10
2017-11-18T16:26:53.316Z,59.80
2017-11-18T16:29:21.558Z,60.60
2017-11-18T16:31:49.034Z,60.60
2017-11-18T16:34:16.591Z,60.30
2017-11-18T16:36:44.071Z,61.00
2017-11-18T16:39:11.693Z,61.10
2017-11-18T16:41:39.902Z,61.70
2017-11-18T16:44:07.379Z,61.70
2017-11-18T16:46:34.895Z,61.80
2017-11-18T16:49:02.383Z,62.00
2017-11-18T16:51:29.854Z,62.50
2017-11-18T16:53:57.333Z,62.50
2017-11-18T16:56:24.773Z,62.40
2017-11-18T16:58:52.274Z,61.90
2017-11-18T17:01:19.757Z,61.90
2017-11-18T17:03:47.229Z,62.10
2017-11-18T17:06:15.481Z,61.90
2017-11-18T17:08:42.966Z,61.80
2017-11-18T17:11:11.215Z,61.40
2017-11-18T17:13:38.685Z,62.00
2017-11-18T17:16:06.161Z,62.10
2017-11-18T17:18:33.643Z,62.60
2017-11-18T17:21:01.891Z,62.30
2017-11-18T17:23:29.348Z,62.20
2017-11-18T17:25:57.620Z,61.60
2017-11-18T17:28:25.073Z,61.80
2017-11-18T17:30:52.553Z,61.30
2017-11-18T17:33:22.385Z,61.40
2017-11-18T17:35:49.862Z,61.40
2017-11-18T17:38:17.357Z,61.20
2017-11-18T17:40:45.601Z,61.00
2017-11-18T17:43:13.065Z,60.80
2017-11-18T17:45:41.317Z,62.30
2017-11-18T17:48:08.814Z,61.60
2017-11-18T17:50:37.058Z,61.50
2017-11-18T17:53:04.884Z,61.50
2017-11-18T17:55:33.115Z,61.00
2017-11-18T17:58:00.596Z,61.10
2017-11-18T18:00:28.075Z,61.20
2017-11-18T18:02:56.320Z,61.70
2017-11-18T18:05:23.787Z,62.40
2017-11-18T18:07:51.241Z,61.80
2017-11-18T18:10:18.757Z,61.90
2017-11-18T18:12:46.228Z,62.10
2017-11-18T18:15:13.699Z,62.30
2017-11-18T18:17:41.171Z,62.60
2017-11-18T18:20:08.643Z,63.00
2017-11-18T18:22:36.096Z,62.90
2017-11-18T18:25:03.595Z,63.20
2017-11-18T18:27:31.114Z,63.40
2017-11-18T18:29:58.574Z,63.20
2017-11-18T18:32:26.052Z,64.20
2017-11-18T18:34:53.519Z,63.80
2017-11-18T18:37:21.007Z,63.70
2017-11-18T18:39:48.487Z,63.90
2017-11-18T18:42:15.964Z,63.90
2017-11-18T18:44:44.225Z,64.10
2017-11-18T18:47:11.697Z,64.10
2017-11-18T18:49:39.934Z,64.00
2017-11-18T18:52:07.425Z,64.00
2017-11-18T18:54:34.902Z,63.90
2017-11-18T18:57:03.140Z,64.20
2017-11-18T18:59:30.605Z,64.20
2017-11-18T19:01:58.067Z,64.20
2017-11-18T19:04:26.346Z,64.30
2017-11-18T19:06:53.808Z,64.30
2017-11-18T19:09:21.271Z,64.50
2017-11-18T19:11:48.758Z,64.40
2017-11-18T19:14:16.231Z,64.00
2017-11-18T19:16:43.714Z,64.40
2017-11-18T19:19:11.199Z,64.00
2017-11-18T19:21:38.678Z,64.00
2017-11-18T19:24:06.153Z,64.10
2017-11-18T19:26:33.618Z,64.40
2017-11-18T19:29:01.097Z,63.80
2017-11-18T19:31:28.561Z,64.30
2017-11-18T19:33:56.035Z,64.20
2017-11-18T19:36:23.518Z,64.00
2017-11-18T19:38:51.881Z,64.20
2017-11-18T19:41:20.133Z,64.50
2017-11-18T19:43:47.647Z,64.50
2017-11-18T19:46:15.116Z,64.90
2017-11-18T19:48:42.597Z,65.10
2017-11-18T19:51:10.086Z,65.60
2017-11-18T19:53:37.596Z,66.00
2017-11-18T19:56:05.068Z,66.50
2017-11-18T19:58:32.539Z,66.70
2017-11-18T20:01:00.002Z,67.00
2017-11-18T20:03:27.487Z,67.30
2017-11-18T20:05:54.962Z,67.70
2017-11-18T20:08:22.470Z,67.60
2017-11-18T20:10:50.697Z,68.00
2017-11-18T20:13:18.196Z,68.00
2017-11-18T20:15:45.654Z,68.00
2017-11-18T20:18:13.137Z,68.00
2017-11-18T20:20:41.382Z,67.90
2017-11-18T20:23:08.869Z,67.90
2017-11-18T20:25:36.342Z,67.80
2017-11-18T20:28:04.588Z,67.70
2017-11-18T20:30:32.053Z,67.70
2017-11-18T20:32:59.518Z,67.80
2017-11-18T20:35:26.969Z,67.70
2017-11-18T20:37:54.509Z,68.00
2017-11-18T20:40:21.964Z,67.70
2017-11-18T20:42:49.442Z,67.80
2017-11-18T20:45:16.920Z,67.70
2017-11-18T20:47:44.402Z,67.90
2017-11-18T20:50:11.881Z,68.60
2017-11-18T20:52:40.130Z,68.40
2017-11-18T20:55:07.604Z,68.40
2017-11-18T20:57:35.076Z,68.40
2017-11-18T21:00:03.319Z,69.70
2017-11-18T21:02:30.798Z,69.00
2017-11-18T21:04:58.276Z,69.30
2017-11-18T21:07:25.762Z,69.70
2017-11-18T21:09:54.488Z,70.20
2017-11-18T21:12:21.968Z,70.20
2017-11-18T21:14:49.449Z,70.30
2017-11-18T21:17:16.910Z,70.20
2017-11-18T21:19:44.374Z,70.50
2017-11-18T21:22:11.834Z,70.60
2017-11-18T21:24:39.327Z,70.90
2017-11-18T21:27:07.554Z,71.20
2017-11-18T21:29:35.038Z,71.20
2017-11-18T21:32:02.508Z,71.30
2017-11-18T21:34:29.985Z,71.60
2017-11-18T21:36:58.232Z,72.20
2017-11-18T21:39:25.715Z,72.20
2017-11-18T21:41:53.180Z,72.40
2017-11-18T21:44:20.678Z,72.60
2017-11-18T21:46:48.139Z,72.80
2017-11-18T21:49:15.609Z,72.60
2017-11-18T21:51:43.087Z,72.80
2017-11-18T21:54:10.563Z,73.10
2017-11-18T21:56:38.037Z,73.40
2017-11-18T21:59:05.519Z,73.60
2017-11-18T22:01:33.773Z,73.80
2017-11-18T22:04:01.244Z,73.80
2017-11-18T22:06:28.735Z,74.00
2017-11-18T22:08:56.213Z,74.20
2017-11-18T22:11:24.463Z,74.50
2017-11-18T22:13:51.925Z,74.50
2017-11-18T22:16:19.416Z,74.50
2017-11-18T22:18:46.886Z,74.60
2017-11-18T22:21:14.368Z,74.60
2017-11-18T22:23:41.865Z,74.70
2017-11-18T22:26:09.347Z,74.60
2017-11-18T22:28:36.812Z,74.90
2017-11-18T22:31:05.069Z,75.80
2017-11-18T22:33:32.546Z,75.10
2017-11-18T22:36:00.031Z,75.10
2017-11-18T22:38:28.288Z,75.40
2017-11-18T22:40:55.782Z,75.40
2017-11-18T22:43:23.270Z,75.30
2017-11-18T22:45:50.762Z,75.20
2017-11-18T22:48:18.243Z,75.00
2017-11-18T22:50:45.729Z,75.20
2017-11-18T22:53:13.972Z,75.70
2017-11-18T22:55:41.444Z,75.70
2017-11-18T22:58:08.973Z,75.70
2017-11-18T23:00:41.311Z,76.00
2017-11-18T23:03:09.571Z,76.20
2017-11-18T23:05:37.063Z,76.20
2017-11-18T23:08:05.282Z,76.40
2017-11-18T23:10:32.741Z,76.30
2017-11-18T23:13:00.246Z,76.30
2017-11-18T23:15:27.708Z,76.40
2017-11-18T23:17:55.186Z,76.30
2017-11-18T23:20:22.703Z,76.60
2017-11-18T23:22:50.173Z,76.70
2017-11-18T23:25:17.637Z,76.30
2017-11-18T23:27:45.111Z,76.50
2017-11-18T23:30:12.578Z,76.50
2017-11-18T23:32:40.075Z,76.50
2017-11-18T23:35:08.315Z,76.90
2017-11-18T23:37:35.790Z,76.90
2017-11-18T23:40:03.271Z,77.00
2017-11-18T23:42:30.773Z,77.00
2017-11-18T23:44:58.250Z,77.10
2017-11-18T23:47:25.730Z,77.10
2017-11-18T23:49:53.205Z,77.00
2017-11-18T23:52:20.693Z,77.30
2017-11-18T23:54:48.927Z,77.10
2017-11-18T23:57:16.410Z,77.10
2017-11-18T23:59:43.885Z,76.90
